createdAt,value
2023-02-27T00:00:14.628Z,0.30
2023-02-27T00:02:46.327Z,0.30
2023-02-27T00:05:14.083Z,0.20
2023-02-27T00:07:41.033Z,0.20
2023-02-27T00:10:10.120Z,0.30
2023-02-27T00:12:38.348Z,0.20
2023-02-27T00:15:11.109Z,0.20
2023-02-27T00:17:38.129Z,0.20
2023-02-27T00:20:11.584Z,0.20
2023-02-27T00:22:39.933Z,0.20
2023-02-27T00:25:08.494Z,0.20
2023-02-27T00:27:35.609Z,0.20
2023-02-27T00:30:04.130Z,0.20
2023-02-27T00:32:30.916Z,0.10
2023-02-27T00:34:57.688Z,0.10
2023-02-27T00:37:24.556Z,0.10
2023-02-27T00:39:51.316Z,0.10
2023-02-27T00:42:18.031Z,0.00
2023-02-27T00:44:44.788Z,0.00
2023-02-27T00:47:11.434Z,0.00
2023-02-27T00:49:38.136Z,0.00
2023-02-27T00:52:05.032Z,0.00
2023-02-27T00:54:31.728Z,0.00
2023-02-27T00:56:58.402Z,0.00
2023-02-27T00:59:25.152Z,0.00
2023-02-27T01:01:51.860Z,0.00
2023-02-27T01:04:18.576Z,-0.10
2023-02-27T01:06:45.258Z,-0.10
2023-02-27T01:09:11.944Z,-0.10
2023-02-27T01:11:39.142Z,-0.10
2023-02-27T01:14:05.894Z,-0.10
2023-02-27T01:16:32.826Z,-0.10
2023-02-27T01:18:59.773Z,-0.20
2023-02-27T01:21:26.820Z,-0.20
2023-02-27T01:23:53.695Z,-0.20
2023-02-27T01:26:20.706Z,-0.20
2023-02-27T01:28:47.829Z,-0.30
2023-02-27T01:31:14.989Z,-0.30
2023-02-27T01:33:41.759Z,-0.30
2023-02-27T01:36:08.912Z,-0.30
2023-02-27T01:38:35.945Z,-0.30
2023-02-27T01:41:04.405Z,-0.40
2023-02-27T01:43:31.115Z,-0.40
2023-02-27T01:45:59.140Z,-0.40
2023-02-27T01:48:34.408Z,-0.40
2023-02-27T01:51:10.034Z,-0.50
2023-02-27T01:53:40.018Z,-0.50
2023-02-27T01:56:14.409Z,-0.50
2023-02-27T01:58:43.005Z,-0.60
2023-02-27T02:01:09.860Z,-0.60
2023-02-27T02:03:52.494Z,-0.60
2023-02-27T02:06:20.174Z,-0.70
2023-02-27T02:08:49.135Z,-0.70
2023-02-27T02:11:18.854Z,-0.70
2023-02-27T02:13:45.747Z,-0.80
2023-02-27T02:16:21.665Z,-0.80
2023-02-27T02:19:00.633Z,-0.80
2023-02-27T02:22:04.943Z,-0.80
2023-02-27T02:25:09.643Z,-0.80
2023-02-27T02:27:36.269Z,-0.80
2023-02-27T02:30:41.957Z,-0.90
2023-02-27T02:33:28.770Z,-0.90
2023-02-27T02:36:48.941Z,-0.90
2023-02-27T02:39:34.996Z,-1.00
2023-02-27T02:42:08.753Z,-1.00
2023-02-27T02:44:56.418Z,-1.00
2023-02-27T02:47:44.234Z,-1.00
2023-02-27T02:50:36.401Z,-1.00
2023-02-27T02:53:18.060Z,-1.00
2023-02-27T02:55:54.282Z,-1.00
2023-02-27T02:58:45.302Z,-1.00
2023-02-27T03:01:14.648Z,-1.00
2023-02-27T03:03:51.486Z,-1.00
2023-02-27T03:06:27.500Z,-1.00
2023-02-27T03:08:59.066Z,-1.00
2023-02-27T03:11:31.359Z,-1.00
2023-02-27T03:14:08.199Z,-1.00
2023-02-27T03:16:41.194Z,-1.10
2023-02-27T03:19:29.912Z,-1.10
2023-02-27T03:22:10.700Z,-1.10
2023-02-27T03:24:46.361Z,-1.10
2023-02-27T03:27:13.878Z,-1.20
2023-02-27T03:30:16.549Z,-1.10
2023-02-27T03:32:56.351Z,-1.20
2023-02-27T03:35:31.679Z,-1.20
2023-02-27T03:38:01.292Z,-1.20
2023-02-27T03:40:57.775Z,-1.20
2023-02-27T03:43:53.903Z,-1.20
2023-02-27T03:46:23.778Z,-1.30
2023-02-27T03:48:50.636Z,-1.30
2023-02-27T03:51:19.930Z,-1.30
2023-02-27T03:54:08.196Z,-1.20
2023-02-27T03:56:58.848Z,-1.30
2023-02-27T03:59:27.027Z,-1.30
2023-02-27T04:01:55.891Z,-1.30
2023-02-27T04:04:23.136Z,-1.30
2023-02-27T04:07:17.061Z,-1.30
2023-02-27T04:10:09.137Z,-1.40
2023-02-27T04:13:20.113Z,-1.40
2023-02-27T04:16:05.653Z,-1.40
2023-02-27T04:18:55.708Z,-1.40
2023-02-27T04:21:44.996Z,-1.40
2023-02-27T04:24:53.209Z,-1.40
2023-02-27T04:27:35.187Z,-1.40
2023-02-27T04:30:38.075Z,-1.50
2023-02-27T04:33:28.541Z,-1.40
2023-02-27T04:36:01.667Z,-1.40
2023-02-27T04:38:36.213Z,-1.50
2023-02-27T04:41:14.765Z,-1.40
2023-02-27T04:43:44.186Z,-1.50
2023-02-27T04:46:15.334Z,-1.40
2023-02-27T04:48:56.407Z,-1.30
2023-02-27T04:51:31.966Z,-1.30
2023-02-27T04:54:08.182Z,-1.30
2023-02-27T04:56:39.698Z,-1.30
2023-02-27T04:59:10.770Z,-1.10
2023-02-27T05:01:43.349Z,-1.20
2023-02-27T05:04:14.225Z,-1.10
2023-02-27T05:06:44.393Z,-1.10
2023-02-27T05:09:41.222Z,-1.00
2023-02-27T05:12:22.985Z,-1.00
2023-02-27T05:14:54.337Z,-0.90
2023-02-27T05:17:28.981Z,-0.90
2023-02-27T05:19:56.128Z,-0.80
2023-02-27T05:22:35.417Z,-0.80
2023-02-27T05:25:08.967Z,-0.70
2023-02-27T05:27:47.079Z,-0.70
2023-02-27T05:30:35.995Z,-0.80
2023-02-27T05:33:30.825Z,-0.80
2023-02-27T05:36:10.469Z,-0.90
2023-02-27T05:38:42.113Z,-0.90
2023-02-27T05:41:39.848Z,-1.00
2023-02-27T05:44:10.486Z,-0.90
2023-02-27T05:46:43.422Z,-1.00
2023-02-27T05:49:31.071Z,-1.10
2023-02-27T05:52:01.824Z,-1.10
2023-02-27T05:55:06.656Z,-1.10
2023-02-27T05:57:51.004Z,-1.10
2023-02-27T06:00:23.013Z,-1.20
2023-02-27T06:02:49.862Z,-1.20
2023-02-27T06:05:18.639Z,-1.20
2023-02-27T06:07:45.579Z,-1.20
2023-02-27T06:10:17.050Z,-1.20
2023-02-27T06:12:43.809Z,-1.20
2023-02-27T06:15:11.697Z,-1.20
2023-02-27T06:17:39.118Z,-1.30
2023-02-27T06:20:10.158Z,-1.30
2023-02-27T06:22:36.994Z,-1.20
2023-02-27T06:25:04.275Z,-1.20
2023-02-27T06:27:31.594Z,-1.20
2023-02-27T06:29:58.254Z,-1.10
2023-02-27T06:32:25.933Z,-1.10
2023-02-27T06:34:53.161Z,-1.00
2023-02-27T06:37:21.544Z,-1.00
2023-02-27T06:39:48.462Z,-0.90
2023-02-27T06:42:18.443Z,-0.90
2023-02-27T06:44:45.162Z,-0.80
2023-02-27T06:47:11.832Z,-0.80
2023-02-27T06:49:38.545Z,-0.80
2023-02-27T06:52:05.476Z,-0.60
2023-02-27T06:54:32.390Z,-0.60
2023-02-27T06:56:59.332Z,-0.60
2023-02-27T06:59:26.111Z,-0.50
2023-02-27T07:01:52.967Z,-0.40
2023-02-27T07:04:19.796Z,-0.30
2023-02-27T07:07:34.541Z,-0.30
2023-02-27T07:09:34.030Z,-0.30
2023-02-27T07:12:01.575Z,-0.30
2023-02-27T07:14:28.429Z,-0.20
2023-02-27T07:16:55.357Z,-0.10
2023-02-27T07:19:23.479Z,0.00
2023-02-27T07:21:50.671Z,0.10
2023-02-27T07:24:17.637Z,0.10
2023-02-27T07:26:44.529Z,0.20
2023-02-27T07:29:11.523Z,0.20
2023-02-27T07:31:38.367Z,0.30
2023-02-27T07:34:05.226Z,0.30
2023-02-27T07:36:32.149Z,0.30
2023-02-27T07:38:58.875Z,0.30
2023-02-27T07:41:30.611Z,0.40
2023-02-27T07:43:57.950Z,0.40
2023-02-27T07:46:27.509Z,0.50
2023-02-27T07:48:54.980Z,0.60
2023-02-27T07:51:21.832Z,0.70
2023-02-27T07:53:48.611Z,0.90
2023-02-27T07:56:15.422Z,0.80
2023-02-27T07:58:42.091Z,0.90
2023-02-27T08:01:08.811Z,0.90
2023-02-27T08:03:35.526Z,0.90
2023-02-27T08:06:02.543Z,1.00
2023-02-27T08:08:29.737Z,1.10
2023-02-27T08:10:56.667Z,1.20
2023-02-27T08:13:35.965Z,1.30
2023-02-27T08:16:10.157Z,1.40
2023-02-27T08:18:37.087Z,1.50
2023-02-27T08:21:05.069Z,1.60
2023-02-27T08:23:34.407Z,1.70
2023-02-27T08:26:02.204Z,1.80
2023-02-27T08:28:29.914Z,1.80
2023-02-27T08:30:56.825Z,1.90
2023-02-27T08:33:24.557Z,2.00
2023-02-27T08:35:51.903Z,2.10
2023-02-27T08:38:18.692Z,2.20
2023-02-27T08:40:45.718Z,2.30
2023-02-27T08:43:12.512Z,2.50
2023-02-27T08:45:39.245Z,2.70
2023-02-27T08:48:06.211Z,2.80
2023-02-27T08:50:32.873Z,2.90
2023-02-27T08:52:59.637Z,2.90
2023-02-27T08:55:26.410Z,3.00
2023-02-27T08:57:54.348Z,3.20
2023-02-27T09:00:21.901Z,3.20
2023-02-27T09:02:48.640Z,3.40
2023-02-27T09:05:15.474Z,3.40
2023-02-27T09:07:42.517Z,3.40
2023-02-27T09:10:10.083Z,3.50
2023-02-27T09:12:37.445Z,3.60
2023-02-27T09:15:05.317Z,3.90
2023-02-27T09:17:32.321Z,4.20
2023-02-27T09:19:59.090Z,4.30
2023-02-27T09:22:25.839Z,4.40
2023-02-27T09:24:52.535Z,4.40
2023-02-27T09:27:19.218Z,4.60
2023-02-27T09:29:45.961Z,4.80
2023-02-27T09:32:12.712Z,5.00
2023-02-27T09:34:39.507Z,5.10
2023-02-27T09:37:06.199Z,5.00
2023-02-27T09:39:33.018Z,5.10
2023-02-27T09:42:11.516Z,5.10
2023-02-27T09:44:47.690Z,5.00
2023-02-27T09:47:25.706Z,4.90
2023-02-27T09:50:26.383Z,4.90
2023-02-27T09:52:53.170Z,4.80
2023-02-27T09:55:22.182Z,4.80
2023-02-27T09:58:13.661Z,4.90
2023-02-27T10:00:46.842Z,5.00
2023-02-27T10:03:38.303Z,5.10
2023-02-27T10:06:14.159Z,5.20
2023-02-27T10:08:46.536Z,5.30
2023-02-27T10:11:17.245Z,5.60
2023-02-27T10:13:56.333Z,5.70
2023-02-27T10:16:24.441Z,5.90
2023-02-27T10:18:58.798Z,6.10
2023-02-27T10:21:33.665Z,6.20
2023-02-27T10:24:19.081Z,6.40
2023-02-27T10:26:46.238Z,6.60
2023-02-27T10:29:33.168Z,6.80
2023-02-27T10:32:26.766Z,6.90
2023-02-27T10:35:09.859Z,7.10
2023-02-27T10:37:41.583Z,7.30
2023-02-27T10:40:15.315Z,7.40
2023-02-27T10:42:43.294Z,7.60
2023-02-27T10:45:15.643Z,8.10
2023-02-27T10:47:42.995Z,8.60
2023-02-27T10:50:27.055Z,8.80
2023-02-27T10:52:59.592Z,9.40
2023-02-27T10:55:32.272Z,9.60
2023-02-27T10:58:01.029Z,9.80
2023-02-27T11:00:53.616Z,10.00
2023-02-27T11:03:26.095Z,10.40
2023-02-27T11:05:57.149Z,10.40
2023-02-27T11:08:27.595Z,10.50
2023-02-27T11:11:06.836Z,10.70
2023-02-27T11:13:38.609Z,10.90
2023-02-27T11:16:14.611Z,11.00
2023-02-27T11:18:43.947Z,11.20
2023-02-27T11:21:30.348Z,11.60
2023-02-27T11:24:02.187Z,11.80
2023-02-27T11:26:40.541Z,12.30
2023-02-27T11:29:11.634Z,13.00
2023-02-27T11:31:39.508Z,13.50
2023-02-27T11:34:08.232Z,15.10
2023-02-27T11:36:47.141Z,16.40
2023-02-27T11:39:34.483Z,17.30
2023-02-27T11:42:12.872Z,18.00
2023-02-27T11:44:50.763Z,18.70
2023-02-27T11:47:23.166Z,19.10
2023-02-27T11:50:16.987Z,19.70
2023-02-27T11:53:08.171Z,20.20
2023-02-27T11:55:36.585Z,20.50
2023-02-27T11:58:20.846Z,21.40
2023-02-27T12:01:03.877Z,20.80
2023-02-27T12:03:48.957Z,20.70
2023-02-27T12:06:30.097Z,17.80
2023-02-27T12:09:02.830Z,15.00
2023-02-27T12:11:43.411Z,13.20
2023-02-27T12:14:28.392Z,12.10
2023-02-27T12:17:06.831Z,11.80
2023-02-27T12:19:42.545Z,11.90
2023-02-27T12:22:22.067Z,14.70
2023-02-27T12:24:57.344Z,17.80
2023-02-27T12:27:46.126Z,18.10
2023-02-27T12:30:22.495Z,16.30
2023-02-27T12:33:24.080Z,15.40
2023-02-27T12:35:59.871Z,16.40
2023-02-27T12:38:26.524Z,17.80
2023-02-27T12:41:12.153Z,15.90
2023-02-27T12:43:45.339Z,14.20
2023-02-27T12:46:24.984Z,12.80
2023-02-27T12:49:01.081Z,11.90
2023-02-27T12:51:44.143Z,11.10
2023-02-27T12:54:39.114Z,10.30
2023-02-27T12:57:31.332Z,9.90
2023-02-27T13:00:10.365Z,10.90
2023-02-27T13:02:51.602Z,11.90
2023-02-27T13:05:27.378Z,12.90
2023-02-27T13:08:31.429Z,11.70
2023-02-27T13:11:09.393Z,10.50
2023-02-27T13:13:47.855Z,9.60
2023-02-27T13:16:30.323Z,9.10
2023-02-27T13:19:17.270Z,8.60
2023-02-27T13:22:02.787Z,8.20
2023-02-27T13:24:31.663Z,8.00
2023-02-27T13:27:25.141Z,7.70
2023-02-27T13:30:01.865Z,7.50
2023-02-27T13:32:44.057Z,7.50
2023-02-27T13:35:20.497Z,7.50
2023-02-27T13:37:56.522Z,7.50
2023-02-27T13:40:41.038Z,7.50
2023-02-27T13:43:38.161Z,7.40
2023-02-27T13:46:22.550Z,7.50
2023-02-27T13:48:52.143Z,7.60
2023-02-27T13:51:43.256Z,7.70
2023-02-27T13:54:16.442Z,7.80
2023-02-27T13:56:54.972Z,7.80
2023-02-27T13:59:26.917Z,7.60
2023-02-27T14:01:58.034Z,7.60
2023-02-27T14:04:28.315Z,7.40
2023-02-27T14:07:12.140Z,7.10
2023-02-27T14:09:42.476Z,6.90
2023-02-27T14:12:30.931Z,6.90
2023-02-27T14:15:27.521Z,6.70
2023-02-27T14:18:11.487Z,6.80
2023-02-27T14:20:42.502Z,6.70
2023-02-27T14:23:15.305Z,6.80
2023-02-27T14:25:50.957Z,6.80
2023-02-27T14:28:31.411Z,6.70
2023-02-27T14:31:07.391Z,6.70
2023-02-27T14:33:40.997Z,6.70
2023-02-27T14:36:29.433Z,6.70
2023-02-27T14:39:01.095Z,6.60
2023-02-27T14:41:44.840Z,6.50
2023-02-27T14:44:18.856Z,6.40
2023-02-27T14:46:45.626Z,6.40
2023-02-27T14:49:36.006Z,6.30
2023-02-27T14:52:29.691Z,6.40
2023-02-27T14:55:31.334Z,6.30
2023-02-27T14:58:17.882Z,6.30
2023-02-27T15:00:51.061Z,6.40
2023-02-27T15:03:23.964Z,6.40
2023-02-27T15:05:53.457Z,6.40
2023-02-27T15:08:24.487Z,6.30
2023-02-27T15:10:54.380Z,6.30
2023-02-27T15:13:33.050Z,6.20
2023-02-27T15:16:21.602Z,6.20
2023-02-27T15:18:50.853Z,6.10
2023-02-27T15:21:20.013Z,6.00
2023-02-27T15:23:58.649Z,6.00
2023-02-27T15:26:27.187Z,5.90
2023-02-27T15:28:54.129Z,5.90
2023-02-27T15:31:27.034Z,5.80
2023-02-27T15:33:54.720Z,5.90
2023-02-27T15:36:25.796Z,5.90
2023-02-27T15:39:16.039Z,6.00
2023-02-27T15:41:46.571Z,5.90
2023-02-27T15:44:15.110Z,5.90
2023-02-27T15:46:42.556Z,6.00
2023-02-27T15:49:16.011Z,5.80
2023-02-27T15:51:42.704Z,5.90
2023-02-27T15:54:11.346Z,5.80
2023-02-27T15:56:39.699Z,5.80
2023-02-27T15:59:06.785Z,5.70
2023-02-27T16:01:37.010Z,5.70
2023-02-27T16:04:06.827Z,5.60
2023-02-27T16:06:39.047Z,5.60
2023-02-27T16:09:19.949Z,5.60
2023-02-27T16:11:46.697Z,5.60
2023-02-27T16:14:38.877Z,5.50
2023-02-27T16:17:27.506Z,5.40
2023-02-27T16:19:55.978Z,5.30
2023-02-27T16:22:23.076Z,5.30
2023-02-27T16:24:50.505Z,5.20
2023-02-27T16:27:23.725Z,5.20
2023-02-27T16:29:52.776Z,5.20
2023-02-27T16:32:24.777Z,5.20
2023-02-27T16:35:00.014Z,5.20
2023-02-27T16:37:46.148Z,5.20
2023-02-27T16:40:14.680Z,5.20
2023-02-27T16:42:42.009Z,5.20
2023-02-27T16:45:15.837Z,5.10
2023-02-27T16:47:43.093Z,5.00
2023-02-27T16:50:19.073Z,5.00
2023-02-27T16:52:45.664Z,5.10
2023-02-27T16:55:12.394Z,5.10
2023-02-27T16:57:39.076Z,5.00
2023-02-27T17:00:09.751Z,5.00
2023-02-27T17:02:36.589Z,5.00
2023-02-27T17:05:03.498Z,5.00
2023-02-27T17:07:30.487Z,5.00
2023-02-27T17:09:57.552Z,5.00
2023-02-27T17:12:24.204Z,5.10
2023-02-27T17:14:50.888Z,5.00
2023-02-27T17:17:17.731Z,5.00
2023-02-27T17:19:45.085Z,5.00
2023-02-27T17:22:11.924Z,4.90
2023-02-27T17:24:38.983Z,5.00
2023-02-27T17:27:05.683Z,4.90
2023-02-27T17:29:32.436Z,5.00
2023-02-27T17:31:59.418Z,4.90
2023-02-27T17:34:26.202Z,4.90
2023-02-27T17:36:53.173Z,4.90
2023-02-27T17:39:19.884Z,4.90
2023-02-27T17:41:46.597Z,4.90
2023-02-27T17:44:13.861Z,4.90
2023-02-27T17:46:41.198Z,4.90
2023-02-27T17:49:10.975Z,4.90
2023-02-27T17:51:37.920Z,4.90
2023-02-27T17:54:05.769Z,4.90
2023-02-27T17:56:34.532Z,4.90
2023-02-27T17:59:02.336Z,4.90
2023-02-27T18:01:29.271Z,4.90
2023-02-27T18:03:56.701Z,4.90
2023-02-27T18:06:24.141Z,4.90
2023-02-27T18:08:51.979Z,4.90
2023-02-27T18:11:20.251Z,4.80
2023-02-27T18:13:47.915Z,4.80
2023-02-27T18:16:15.580Z,4.90
2023-02-27T18:18:43.686Z,4.80
2023-02-27T18:21:16.998Z,4.80
2023-02-27T18:23:44.209Z,4.80
2023-02-27T18:26:29.055Z,4.80
2023-02-27T18:29:05.876Z,4.70
2023-02-27T18:31:38.968Z,4.70
2023-02-27T18:34:06.256Z,4.60
2023-02-27T18:36:33.305Z,4.60
2023-02-27T18:39:00.479Z,4.60
2023-02-27T18:41:28.094Z,4.60
2023-02-27T18:43:54.932Z,4.50
2023-02-27T18:46:22.119Z,4.50
2023-02-27T18:48:48.816Z,4.40
2023-02-27T18:51:17.259Z,4.40
2023-02-27T18:53:48.007Z,4.40
2023-02-27T18:56:17.003Z,4.20
2023-02-27T18:58:45.184Z,4.20
2023-02-27T19:01:26.220Z,4.10
2023-02-27T19:03:55.902Z,4.10
2023-02-27T19:06:22.686Z,4.10
2023-02-27T19:08:49.512Z,4.10
2023-02-27T19:11:29.460Z,4.10
2023-02-27T19:14:00.313Z,4.10
2023-02-27T19:16:28.038Z,4.00
2023-02-27T19:18:56.831Z,4.00
2023-02-27T19:21:24.660Z,3.90
2023-02-27T19:23:51.776Z,3.90
2023-02-27T19:26:18.887Z,3.90
2023-02-27T19:28:45.754Z,3.90
2023-02-27T19:31:14.182Z,3.90
2023-02-27T19:33:41.254Z,3.80
2023-02-27T19:36:13.500Z,3.90
2023-02-27T19:38:40.755Z,3.80
2023-02-27T19:41:10.634Z,3.80
2023-02-27T19:43:39.261Z,3.80
2023-02-27T19:46:08.266Z,3.80
2023-02-27T19:48:35.565Z,3.80
2023-02-27T19:51:04.681Z,3.80
2023-02-27T19:53:32.436Z,3.80
2023-02-27T19:56:07.503Z,3.80
2023-02-27T19:58:36.071Z,3.80
2023-02-27T20:01:04.622Z,3.70
2023-02-27T20:03:31.936Z,3.70
2023-02-27T20:05:59.048Z,3.70
2023-02-27T20:08:25.789Z,3.70
2023-02-27T20:10:55.232Z,3.70
2023-02-27T20:13:22.049Z,3.70
2023-02-27T20:15:59.860Z,3.60
2023-02-27T20:18:30.206Z,3.70
2023-02-27T20:21:01.136Z,3.60
2023-02-27T20:23:28.796Z,3.60
2023-02-27T20:25:55.680Z,3.60
2023-02-27T20:28:22.776Z,3.50
2023-02-27T20:30:49.766Z,3.50
2023-02-27T20:33:16.467Z,3.50
2023-02-27T20:35:43.578Z,3.40
2023-02-27T20:38:10.324Z,3.40
2023-02-27T20:40:37.015Z,3.30
2023-02-27T20:43:04.028Z,3.40
2023-02-27T20:45:30.781Z,3.30
2023-02-27T20:47:58.024Z,3.30
2023-02-27T20:50:24.700Z,3.20
2023-02-27T20:52:54.991Z,3.20
2023-02-27T20:55:21.707Z,3.20
2023-02-27T20:57:48.415Z,3.20
2023-02-27T21:00:15.702Z,3.30
2023-02-27T21:02:42.400Z,3.20
2023-02-27T21:05:09.442Z,3.20
2023-02-27T21:07:36.162Z,3.20
2023-02-27T21:10:03.155Z,3.20
2023-02-27T21:12:29.956Z,3.20
2023-02-27T21:14:56.707Z,3.20
2023-02-27T21:17:26.027Z,3.20
2023-02-27T21:19:52.739Z,3.30
2023-02-27T21:22:19.417Z,3.30
2023-02-27T21:24:47.331Z,3.40
2023-02-27T21:27:14.186Z,3.30
2023-02-27T21:29:40.868Z,3.30
2023-02-27T21:32:07.767Z,3.30
2023-02-27T21:34:34.542Z,3.30
2023-02-27T21:37:02.618Z,3.30
2023-02-27T21:39:29.306Z,3.30
2023-02-27T21:41:56.212Z,3.30
2023-02-27T21:44:26.952Z,3.40
2023-02-27T21:46:54.774Z,3.40
2023-02-27T21:49:25.115Z,3.30
2023-02-27T21:51:52.209Z,3.30
2023-02-27T21:54:19.636Z,3.30
2023-02-27T21:56:48.318Z,3.30
2023-02-27T21:59:16.389Z,3.30
2023-02-27T22:01:48.073Z,3.30
2023-02-27T22:04:16.846Z,3.20
2023-02-27T22:06:43.898Z,3.30
2023-02-27T22:09:10.619Z,3.30
2023-02-27T22:11:37.469Z,3.20
2023-02-27T22:14:06.975Z,3.20
2023-02-27T22:16:34.146Z,3.10
2023-02-27T22:19:08.786Z,3.10
2023-02-27T22:21:37.045Z,3.10
2023-02-27T22:24:04.609Z,3.10
2023-02-27T22:26:32.699Z,3.10
2023-02-27T22:29:01.276Z,3.10
2023-02-27T22:31:33.883Z,3.10
2023-02-27T22:34:07.032Z,3.10
2023-02-27T22:36:35.735Z,3.10
2023-02-27T22:39:03.667Z,3.10
2023-02-27T22:41:33.620Z,3.10
2023-02-27T22:44:01.685Z,3.00
2023-02-27T22:46:31.639Z,3.00
2023-02-27T22:49:01.194Z,3.00
2023-02-27T22:51:28.783Z,2.90
2023-02-27T22:53:58.076Z,2.90
2023-02-27T22:56:25.629Z,2.90
2023-02-27T22:58:52.910Z,2.80
2023-02-27T23:01:28.806Z,2.80
2023-02-27T23:03:58.535Z,2.80
2023-02-27T23:06:31.047Z,2.80
2023-02-27T23:08:58.260Z,2.80
2023-02-27T23:11:25.042Z,2.80
2023-02-27T23:13:52.509Z,2.80
2023-02-27T23:16:19.671Z,2.80
2023-02-27T23:18:55.141Z,2.80
2023-02-27T23:21:24.951Z,2.80
2023-02-27T23:23:57.435Z,2.80
2023-02-27T23:26:28.286Z,2.80
2023-02-27T23:28:56.501Z,2.80
2023-02-27T23:31:23.692Z,2.80
2023-02-27T23:33:50.392Z,2.70
2023-02-27T23:36:17.687Z,2.80
2023-02-27T23:38:46.518Z,2.70
2023-02-27T23:41:17.313Z,2.70
2023-02-27T23:43:45.005Z,2.70
2023-02-27T23:46:14.252Z,2.70
2023-02-27T23:48:41.764Z,2.60
2023-02-27T23:51:09.973Z,2.60
2023-02-27T23:53:38.194Z,2.60
2023-02-27T23:56:15.181Z,2.60
2023-02-27T23:58:42.057Z,2.60
